Terminal Aerodrome Forecast
Issued by NWS Huntsville, AL

Home | Current Version | Previous Version | Text Only | Print | Product List | Glossary On
Versions: 1 2 3 4 5 6 7 8 9 10 11 12 13
000
FTUS44 KHUN 252356
TAFMSL
TAF
KMSL 252356Z 2600/2624 VRB03KT 5SM RA BR SCT008 BKN015 OVC090
      TEMPO 2603/2607 3SM RA BR BKN008 OVC015
     FM260700 VRB03KT 5SM -DZ BR SCT008 BKN015 OVC050
     FM261400 01008KT P6SM SCT015 BKN025
     FM261600 01008KT P6SM FEW035=

USA.gov is the U.S. government's official web portal to all federal, state and local government web resources and services.